sensor_id;sensor_type;location;lat;lon;timestamp;pressure;altitude;pressure_sealevel;temperature;humidity
77725;BME280;66892;53.236;6.550;2023-02-28T00:00:18;103365.38;;;3.31;91.42
77725;BME280;66892;53.236;6.550;2023-02-28T00:02:45;103366.25;;;3.31;90.75
77725;BME280;66892;53.236;6.550;2023-02-28T00:05:13;103358.31;;;3.30;91.36
77725;BME280;66892;53.236;6.550;2023-02-28T00:07:39;103365.25;;;3.29;91.39
77725;BME280;66892;53.236;6.550;2023-02-28T00:10:09;103360.03;;;3.29;91.67
77725;BME280;66892;53.236;6.550;2023-02-28T00:12:35;103359.25;;;3.30;90.89
77725;BME280;66892;53.236;6.550;2023-02-28T00:15:02;103345.25;;;3.30;90.71
77725;BME280;66892;53.236;6.550;2023-02-28T00:17:30;103343.53;;;3.30;91.03
77725;BME280;66892;53.236;6.550;2023-02-28T00:19:56;103345.34;;;3.31;91.27
77725;BME280;66892;53.236;6.550;2023-02-28T00:22:27;103343.75;;;3.33;91.05
77725;BME280;66892;53.236;6.550;2023-02-28T00:24:53;103352.59;;;3.35;91.73
77725;BME280;66892;53.236;6.550;2023-02-28T00:27:21;103336.91;;;3.35;91.27
77725;BME280;66892;53.236;6.550;2023-02-28T00:29:47;103334.88;;;3.31;91.98
77725;BME280;66892;53.236;6.550;2023-02-28T00:32:13;103339.13;;;3.29;91.58
77725;BME280;66892;53.236;6.550;2023-02-28T00:34:39;103346.97;;;3.29;91.86
77725;BME280;66892;53.236;6.550;2023-02-28T00:37:06;103345.25;;;3.30;92.63
77725;BME280;66892;53.236;6.550;2023-02-28T00:39:33;103346.56;;;3.36;93.33
77725;BME280;66892;53.236;6.550;2023-02-28T00:42:00;103341.13;;;3.33;92.82
77725;BME280;66892;53.236;6.550;2023-02-28T00:44:27;103350.16;;;3.38;93.79
77725;BME280;66892;53.236;6.550;2023-02-28T00:46:53;103348.78;;;3.43;93.27
77725;BME280;66892;53.236;6.550;2023-02-28T00:49:20;103349.66;;;3.44;92.93
77725;BME280;66892;53.236;6.550;2023-02-28T00:51:46;103349.84;;;3.47;92.79
77725;BME280;66892;53.236;6.550;2023-02-28T00:54:12;103347.56;;;3.51;92.81
77725;BME280;66892;53.236;6.550;2023-02-28T00:56:38;103350.09;;;3.50;93.04
77725;BME280;66892;53.236;6.550;2023-02-28T00:59:04;103341.34;;;3.49;92.43
77725;BME280;66892;53.236;6.550;2023-02-28T01:01:32;103338.59;;;3.48;93.08
77725;BME280;66892;53.236;6.550;2023-02-28T01:03:58;103331.34;;;3.44;92.23
77725;BME280;66892;53.236;6.550;2023-02-28T01:06:24;103332.97;;;3.42;92.89
77725;BME280;66892;53.236;6.550;2023-02-28T01:08:50;103332.06;;;3.41;93.13
77725;BME280;66892;53.236;6.550;2023-02-28T01:11:17;103336.50;;;3.42;93.44
77725;BME280;66892;53.236;6.550;2023-02-28T01:13:44;103335.59;;;3.42;93.49
77725;BME280;66892;53.236;6.550;2023-02-28T01:16:11;103332.19;;;3.43;93.15
77725;BME280;66892;53.236;6.550;2023-02-28T01:18:39;103333.97;;;3.44;92.96
77725;BME280;66892;53.236;6.550;2023-02-28T01:21:05;103328.84;;;3.45;93.16
77725;BME280;66892;53.236;6.550;2023-02-28T01:23:32;103334.38;;;3.50;93.68
77725;BME280;66892;53.236;6.550;2023-02-28T01:26:04;103315.94;;;3.61;94.00
77725;BME280;66892;53.236;6.550;2023-02-28T01:28:30;103318.56;;;3.61;93.32
77725;BME280;66892;53.236;6.550;2023-02-28T01:30:56;103326.31;;;3.60;93.70
77725;BME280;66892;53.236;6.550;2023-02-28T01:33:23;103332.56;;;3.62;93.55
77725;BME280;66892;53.236;6.550;2023-02-28T01:35:57;103338.59;;;3.61;93.58
77725;BME280;66892;53.236;6.550;2023-02-28T01:38:23;103325.50;;;3.61;94.29
77725;BME280;66892;53.236;6.550;2023-02-28T01:40:49;103323.88;;;3.63;93.75
77725;BME280;66892;53.236;6.550;2023-02-28T01:43:20;103321.19;;;3.61;93.81
77725;BME280;66892;53.236;6.550;2023-02-28T01:45:46;103328.03;;;3.59;93.43
77725;BME280;66892;53.236;6.550;2023-02-28T01:48:12;103324.50;;;3.59;93.61
77725;BME280;66892;53.236;6.550;2023-02-28T01:50:41;103315.75;;;3.58;93.38
77725;BME280;66892;53.236;6.550;2023-02-28T01:53:13;103306.09;;;3.57;93.68
77725;BME280;66892;53.236;6.550;2023-02-28T01:55:42;103303.28;;;3.54;93.51
77725;BME280;66892;53.236;6.550;2023-02-28T01:58:11;103295.34;;;3.53;93.95
77725;BME280;66892;53.236;6.550;2023-02-28T02:00:37;103297.34;;;3.57;94.15
77725;BME280;66892;53.236;6.550;2023-02-28T02:03:08;103295.34;;;3.66;94.26
77725;BME280;66892;53.236;6.550;2023-02-28T02:05:37;103292.38;;;3.75;94.60
77725;BME280;66892;53.236;6.550;2023-02-28T02:08:05;103294.69;;;3.70;94.69
77725;BME280;66892;53.236;6.550;2023-02-28T02:10:36;103290.09;;;3.66;94.80
77725;BME280;66892;53.236;6.550;2023-02-28T02:13:14;103285.47;;;3.62;94.10
77725;BME280;66892;53.236;6.550;2023-02-28T02:15:49;103286.25;;;3.61;94.83
77725;BME280;66892;53.236;6.550;2023-02-28T02:18:27;103290.59;;;3.60;94.09
77725;BME280;66892;53.236;6.550;2023-02-28T02:21:37;103288.09;;;3.62;94.79
77725;BME280;66892;53.236;6.550;2023-02-28T02:24:33;103286.56;;;3.65;94.86
77725;BME280;66892;53.236;6.550;2023-02-28T02:27:17;103284.88;;;3.66;95.30
77725;BME280;66892;53.236;6.550;2023-02-28T02:29:59;103285.75;;;3.66;95.48
77725;BME280;66892;53.236;6.550;2023-02-28T02:35:40;103274.28;;;3.64;95.24
77725;BME280;66892;53.236;6.550;2023-02-28T02:38:11;103280.25;;;3.62;94.89
77725;BME280;66892;53.236;6.550;2023-02-28T02:40:43;103276.72;;;3.61;95.20
77725;BME280;66892;53.236;6.550;2023-02-28T02:43:13;103282.84;;;3.62;94.81
77725;BME280;66892;53.236;6.550;2023-02-28T02:45:45;103273.28;;;3.62;95.05
77725;BME280;66892;53.236;6.550;2023-02-28T02:48:14;103281.22;;;3.64;94.79
77725;BME280;66892;53.236;6.550;2023-02-28T02:50:45;103280.69;;;3.69;95.71
77725;BME280;66892;53.236;6.550;2023-02-28T02:53:13;103278.09;;;3.69;95.48
77725;BME280;66892;53.236;6.550;2023-02-28T02:55:42;103280.69;;;3.69;95.24
77725;BME280;66892;53.236;6.550;2023-02-28T02:58:13;103288.47;;;3.68;94.96
77725;BME280;66892;53.236;6.550;2023-02-28T03:00:44;103284.03;;;3.67;95.11
77725;BME280;66892;53.236;6.550;2023-02-28T03:03:12;103281.22;;;3.64;94.76
77725;BME280;66892;53.236;6.550;2023-02-28T03:05:45;103284.63;;;3.63;95.03
77725;BME280;66892;53.236;6.550;2023-02-28T03:08:12;103278.53;;;3.62;94.48
77725;BME280;66892;53.236;6.550;2023-02-28T03:10:41;103282.03;;;3.63;95.20
77725;BME280;66892;53.236;6.550;2023-02-28T03:16:25;103281.94;;;3.61;94.94
77725;BME280;66892;53.236;6.550;2023-02-28T03:19:00;103289.97;;;3.64;95.25
77725;BME280;66892;53.236;6.550;2023-02-28T03:21:36;103284.94;;;3.67;96.27
77725;BME280;66892;53.236;6.550;2023-02-28T03:24:07;103286.84;;;3.70;95.77
77725;BME280;66892;53.236;6.550;2023-02-28T03:26:39;103288.84;;;3.74;95.80
77725;BME280;66892;53.236;6.550;2023-02-28T03:29:13;103286.44;;;3.77;96.14
77725;BME280;66892;53.236;6.550;2023-02-28T03:31:46;103285.63;;;3.78;96.14
77725;BME280;66892;53.236;6.550;2023-02-28T03:34:19;103284.72;;;3.78;96.54
77725;BME280;66892;53.236;6.550;2023-02-28T03:36:51;103284.72;;;3.78;95.70
77725;BME280;66892;53.236;6.550;2023-02-28T03:39:20;103284.59;;;3.76;96.31
77725;BME280;66892;53.236;6.550;2023-02-28T03:41:50;103286.09;;;3.86;95.61
77725;BME280;66892;53.236;6.550;2023-02-28T03:44:21;103280.66;;;3.83;96.00
77725;BME280;66892;53.236;6.550;2023-02-28T03:46:54;103285.72;;;3.80;95.76
77725;BME280;66892;53.236;6.550;2023-02-28T03:49:24;103290.69;;;3.75;95.54
77725;BME280;66892;53.236;6.550;2023-02-28T03:51:54;103280.09;;;3.73;95.79
77725;BME280;66892;53.236;6.550;2023-02-28T03:54:25;103285.31;;;3.73;95.59
77725;BME280;66892;53.236;6.550;2023-02-28T03:56:54;103287.88;;;3.72;95.14
77725;BME280;66892;53.236;6.550;2023-02-28T03:59:27;103294.31;;;3.64;95.12
77725;BME280;66892;53.236;6.550;2023-02-28T04:01:54;103290.91;;;3.65;95.14
77725;BME280;66892;53.236;6.550;2023-02-28T04:04:21;103291.31;;;3.58;95.24
77725;BME280;66892;53.236;6.550;2023-02-28T04:06:50;103287.69;;;3.56;95.00
77725;BME280;66892;53.236;6.550;2023-02-28T04:09:17;103286.47;;;3.51;94.91
77725;BME280;66892;53.236;6.550;2023-02-28T04:11:45;103288.63;;;3.43;94.94
77725;BME280;66892;53.236;6.550;2023-02-28T04:14:12;103300.47;;;3.38;95.36
77725;BME280;66892;53.236;6.550;2023-02-28T04:16:40;103296.88;;;3.36;95.54
77725;BME280;66892;53.236;6.550;2023-02-28T04:19:08;103308.25;;;3.37;95.47
77725;BME280;66892;53.236;6.550;2023-02-28T04:21:37;103291.03;;;3.40;95.01
77725;BME280;66892;53.236;6.550;2023-02-28T04:24:05;103297.66;;;3.35;94.89
77725;BME280;66892;53.236;6.550;2023-02-28T04:26:34;103297.78;;;3.37;95.25
77725;BME280;66892;53.236;6.550;2023-02-28T04:29:01;103304.53;;;3.33;95.09
77725;BME280;66892;53.236;6.550;2023-02-28T04:31:28;103303.50;;;3.31;95.46
77725;BME280;66892;53.236;6.550;2023-02-28T04:33:54;103303.94;;;3.24;94.94
77725;BME280;66892;53.236;6.550;2023-02-28T04:36:20;103304.13;;;3.27;94.72
77725;BME280;66892;53.236;6.550;2023-02-28T04:38:46;103301.19;;;3.23;95.31
77725;BME280;66892;53.236;6.550;2023-02-28T04:41:12;103302.63;;;3.17;95.79
77725;BME280;66892;53.236;6.550;2023-02-28T04:43:40;103300.88;;;3.18;95.70
77725;BME280;66892;53.236;6.550;2023-02-28T04:46:06;103300.88;;;3.18;95.69
77725;BME280;66892;53.236;6.550;2023-02-28T04:48:34;103303.28;;;3.15;95.59
77725;BME280;66892;53.236;6.550;2023-02-28T04:51:01;103305.91;;;3.15;95.41
77725;BME280;66892;53.236;6.550;2023-02-28T04:53:27;103305.72;;;3.12;95.47
77725;BME280;66892;53.236;6.550;2023-02-28T04:55:55;103311.78;;;3.11;96.00
77725;BME280;66892;53.236;6.550;2023-02-28T04:58:21;103297.78;;;3.10;95.54
77725;BME280;66892;53.236;6.550;2023-02-28T05:00:52;103305.81;;;3.13;95.50
77725;BME280;66892;53.236;6.550;2023-02-28T05:03:18;103302.09;;;3.10;95.00
77725;BME280;66892;53.236;6.550;2023-02-28T05:05:44;103299.16;;;3.05;94.87
77725;BME280;66892;53.236;6.550;2023-02-28T05:08:10;103303.41;;;3.03;95.06
77725;BME280;66892;53.236;6.550;2023-02-28T05:10:36;103314.56;;;3.01;95.26
77725;BME280;66892;53.236;6.550;2023-02-28T05:13:03;103306.41;;;2.96;95.42
77725;BME280;66892;53.236;6.550;2023-02-28T05:15:29;103315.94;;;2.96;95.66
77725;BME280;66892;53.236;6.550;2023-02-28T05:17:56;103308.63;;;2.90;95.34
77725;BME280;66892;53.236;6.550;2023-02-28T05:20:22;103307.72;;;2.90;95.37
77725;BME280;66892;53.236;6.550;2023-02-28T05:22:49;103309.00;;;2.83;94.75
77725;BME280;66892;53.236;6.550;2023-02-28T05:25:18;103302.88;;;2.83;94.45
77725;BME280;66892;53.236;6.550;2023-02-28T05:27:44;103304.16;;;2.76;94.74
77725;BME280;66892;53.236;6.550;2023-02-28T05:30:11;103308.81;;;2.80;94.52
77725;BME280;66892;53.236;6.550;2023-02-28T05:32:37;103311.00;;;2.74;94.81
77725;BME280;66892;53.236;6.550;2023-02-28T05:35:05;103311.78;;;2.73;95.39
77725;BME280;66892;53.236;6.550;2023-02-28T05:37:31;103317.03;;;2.73;94.40
77725;BME280;66892;53.236;6.550;2023-02-28T05:39:57;103319.63;;;2.73;94.67
77725;BME280;66892;53.236;6.550;2023-02-28T05:42:23;103313.53;;;2.73;94.82
77725;BME280;66892;53.236;6.550;2023-02-28T05:44:50;103322.16;;;2.72;95.17
77725;BME280;66892;53.236;6.550;2023-02-28T05:47:16;103321.75;;;2.65;94.80
77725;BME280;66892;53.236;6.550;2023-02-28T05:49:42;103326.84;;;2.64;94.50
77725;BME280;66892;53.236;6.550;2023-02-28T05:52:10;103323.13;;;2.60;95.18
77725;BME280;66892;53.236;6.550;2023-02-28T05:54:36;103318.59;;;2.58;94.64
77725;BME280;66892;53.236;6.550;2023-02-28T05:57:02;103329.25;;;2.61;94.45
77725;BME280;66892;53.236;6.550;2023-02-28T05:59:28;103324.84;;;2.60;95.50
77725;BME280;66892;53.236;6.550;2023-02-28T06:01:54;103328.97;;;2.56;95.57
77725;BME280;66892;53.236;6.550;2023-02-28T06:04:21;103319.63;;;2.60;95.47
77725;BME280;66892;53.236;6.550;2023-02-28T06:06:48;103322.00;;;2.57;94.71
77725;BME280;66892;53.236;6.550;2023-02-28T06:09:17;103323.53;;;2.53;94.93
77725;BME280;66892;53.236;6.550;2023-02-28T06:11:43;103325.22;;;2.53;95.33
77725;BME280;66892;53.236;6.550;2023-02-28T06:14:14;103322.91;;;2.57;94.90
77725;BME280;66892;53.236;6.550;2023-02-28T06:16:40;103324.63;;;2.57;95.53
77725;BME280;66892;53.236;6.550;2023-02-28T06:19:06;103329.63;;;2.54;95.38
77725;BME280;66892;53.236;6.550;2023-02-28T06:21:32;103325.94;;;2.50;95.96
77725;BME280;66892;53.236;6.550;2023-02-28T06:23:58;103335.56;;;2.51;95.68
77725;BME280;66892;53.236;6.550;2023-02-28T06:26:26;103334.75;;;2.52;94.99
77725;BME280;66892;53.236;6.550;2023-02-28T06:28:52;103337.25;;;2.51;94.84
77725;BME280;66892;53.236;6.550;2023-02-28T06:31:18;103338.88;;;2.49;95.30
77725;BME280;66892;53.236;6.550;2023-02-28T06:33:45;103340.56;;;2.48;95.07
77725;BME280;66892;53.236;6.550;2023-02-28T06:36:14;103338.75;;;2.47;95.30
77725;BME280;66892;53.236;6.550;2023-02-28T06:38:40;103348.63;;;2.51;95.27
77725;BME280;66892;53.236;6.550;2023-02-28T06:41:07;103354.75;;;2.52;95.24
77725;BME280;66892;53.236;6.550;2023-02-28T06:43:38;103353.31;;;2.44;95.21
77725;BME280;66892;53.236;6.550;2023-02-28T06:46:05;103356.81;;;2.44;95.27
77725;BME280;66892;53.236;6.550;2023-02-28T06:48:32;103361.25;;;2.45;95.49
77725;BME280;66892;53.236;6.550;2023-02-28T06:51:02;103365.56;;;2.45;95.37
77725;BME280;66892;53.236;6.550;2023-02-28T06:53:28;103378.41;;;2.42;94.39
77725;BME280;66892;53.236;6.550;2023-02-28T06:55:54;103384.06;;;2.48;94.66
77725;BME280;66892;53.236;6.550;2023-02-28T06:58:20;103388.59;;;2.50;95.04
77725;BME280;66892;53.236;6.550;2023-02-28T07:00:50;103384.06;;;2.48;94.23
77725;BME280;66892;53.236;6.550;2023-02-28T07:03:17;103373.59;;;2.48;94.47
77725;BME280;66892;53.236;6.550;2023-02-28T07:05:44;103376.13;;;2.46;94.50
77725;BME280;66892;53.236;6.550;2023-02-28T07:08:11;103377.41;;;2.40;94.28
77725;BME280;66892;53.236;6.550;2023-02-28T07:10:37;103378.97;;;2.38;94.46
77725;BME280;66892;53.236;6.550;2023-02-28T07:13:04;103385.13;;;2.38;94.80
77725;BME280;66892;53.236;6.550;2023-02-28T07:15:30;103389.34;;;2.36;93.47
77725;BME280;66892;53.236;6.550;2023-02-28T07:17:57;103393.56;;;2.34;93.25
77725;BME280;66892;53.236;6.550;2023-02-28T07:20:24;103397.66;;;2.31;93.97
77725;BME280;66892;53.236;6.550;2023-02-28T07:22:50;103394.91;;;2.29;94.06
77725;BME280;66892;53.236;6.550;2023-02-28T07:25:22;103404.44;;;2.29;93.61
77725;BME280;66892;53.236;6.550;2023-02-28T07:27:49;103405.47;;;2.31;93.95
77725;BME280;66892;53.236;6.550;2023-02-28T07:30:15;103404.56;;;2.30;93.55
77725;BME280;66892;53.236;6.550;2023-02-28T07:32:41;103400.91;;;2.28;94.58
77725;BME280;66892;53.236;6.550;2023-02-28T07:35:09;103409.78;;;2.30;93.86
77725;BME280;66892;53.236;6.550;2023-02-28T07:37:35;103407.41;;;2.33;94.26
77725;BME280;66892;53.236;6.550;2023-02-28T07:40:02;103402.97;;;2.32;93.86
77725;BME280;66892;53.236;6.550;2023-02-28T07:42:29;103406.38;;;2.31;93.33
77725;BME280;66892;53.236;6.550;2023-02-28T07:44:55;103409.09;;;2.33;93.36
77725;BME280;66892;53.236;6.550;2023-02-28T07:47:22;103406.00;;;2.38;93.90
77725;BME280;66892;53.236;6.550;2023-02-28T07:49:48;103405.69;;;2.34;93.13
77725;BME280;66892;53.236;6.550;2023-02-28T07:52:15;103410.22;;;2.36;93.33
77725;BME280;66892;53.236;6.550;2023-02-28T07:54:41;103407.03;;;2.40;92.44
77725;BME280;66892;53.236;6.550;2023-02-28T07:57:07;103401.91;;;2.42;93.66
77725;BME280;66892;53.236;6.550;2023-02-28T07:59:33;103397.03;;;2.46;93.08
77725;BME280;66892;53.236;6.550;2023-02-28T08:01:59;103395.31;;;2.47;92.48
77725;BME280;66892;53.236;6.550;2023-02-28T08:04:26;103397.44;;;2.52;92.93
77725;BME280;66892;53.236;6.550;2023-02-28T08:06:52;103401.59;;;2.62;92.25
77725;BME280;66892;53.236;6.550;2023-02-28T08:09:20;103405.91;;;2.61;91.93
77725;BME280;66892;53.236;6.550;2023-02-28T08:11:46;103399.91;;;2.62;92.87
77725;BME280;66892;53.236;6.550;2023-02-28T08:14:12;103413.16;;;2.65;91.93
77725;BME280;66892;53.236;6.550;2023-02-28T08:16:38;103421.78;;;2.64;92.41
77725;BME280;66892;53.236;6.550;2023-02-28T08:19:04;103419.53;;;2.69;91.88
77725;BME280;66892;53.236;6.550;2023-02-28T08:21:30;103415.63;;;2.76;91.18
77725;BME280;66892;53.236;6.550;2023-02-28T08:23:56;103413.53;;;2.83;91.75
77725;BME280;66892;53.236;6.550;2023-02-28T08:26:24;103413.72;;;2.86;92.06
77725;BME280;66892;53.236;6.550;2023-02-28T08:28:50;103416.47;;;2.88;91.68
77725;BME280;66892;53.236;6.550;2023-02-28T08:31:16;103412.44;;;2.93;91.77
77725;BME280;66892;53.236;6.550;2023-02-28T08:33:43;103410.78;;;3.06;91.56
77725;BME280;66892;53.236;6.550;2023-02-28T08:36:11;103417.03;;;3.22;91.94
77725;BME280;66892;53.236;6.550;2023-02-28T08:38:37;103416.25;;;3.36;90.05
77725;BME280;66892;53.236;6.550;2023-02-28T08:41:06;103422.22;;;3.46;89.83
77725;BME280;66892;53.236;6.550;2023-02-28T08:43:34;103426.22;;;3.67;90.29
77725;BME280;66892;53.236;6.550;2023-02-28T08:46:00;103429.97;;;3.84;90.82
77725;BME280;66892;53.236;6.550;2023-02-28T08:48:28;103429.63;;;4.06;89.37
77725;BME280;66892;53.236;6.550;2023-02-28T08:50:55;103431.34;;;4.05;89.62
77725;BME280;66892;53.236;6.550;2023-02-28T08:53:21;103426.00;;;4.04;89.82
77725;BME280;66892;53.236;6.550;2023-02-28T08:55:55;103439.31;;;4.07;89.83
77725;BME280;66892;53.236;6.550;2023-02-28T08:58:21;103431.44;;;4.20;88.73
77725;BME280;66892;53.236;6.550;2023-02-28T09:00:49;103433.34;;;4.09;88.86
77725;BME280;66892;53.236;6.550;2023-02-28T09:03:15;103430.91;;;4.25;88.08
77725;BME280;66892;53.236;6.550;2023-02-28T09:05:51;103437.00;;;4.39;87.96
77725;BME280;66892;53.236;6.550;2023-02-28T09:08:17;103430.47;;;4.33;87.31
77725;BME280;66892;53.236;6.550;2023-02-28T09:10:43;103432.28;;;4.34;87.78
77725;BME280;66892;53.236;6.550;2023-02-28T09:13:09;103437.03;;;4.26;87.79
77725;BME280;66892;53.236;6.550;2023-02-28T09:15:37;103429.47;;;4.31;88.32
77725;BME280;66892;53.236;6.550;2023-02-28T09:18:04;103436.53;;;4.32;87.59
77725;BME280;66892;53.236;6.550;2023-02-28T09:20:30;103436.22;;;4.27;87.00
77725;BME280;66892;53.236;6.550;2023-02-28T09:22:56;103432.47;;;4.37;88.11
77725;BME280;66892;53.236;6.550;2023-02-28T09:25:23;103433.03;;;4.59;86.67
77725;BME280;66892;53.236;6.550;2023-02-28T09:27:49;103434.22;;;4.78;85.24
77725;BME280;66892;53.236;6.550;2023-02-28T09:30:15;103437.75;;;4.79;85.44
77725;BME280;66892;53.236;6.550;2023-02-28T09:32:41;103430.41;;;4.59;84.77
77725;BME280;66892;53.236;6.550;2023-02-28T09:35:09;103427.59;;;4.56;85.44
77725;BME280;66892;53.236;6.550;2023-02-28T09:37:39;103430.09;;;4.54;86.41
77725;BME280;66892;53.236;6.550;2023-02-28T09:40:06;103431.41;;;4.61;85.39
77725;BME280;66892;53.236;6.550;2023-02-28T09:42:33;103418.28;;;4.61;86.96
77725;BME280;66892;53.236;6.550;2023-02-28T09:45:01;103421.13;;;4.23;84.13
77725;BME280;66892;53.236;6.550;2023-02-28T09:47:34;103423.88;;;4.11;85.98
77725;BME280;66892;53.236;6.550;2023-02-28T09:50:20;103429.22;;;4.00;87.04
77725;BME280;66892;53.236;6.550;2023-02-28T09:52:49;103427.13;;;3.94;85.33
77725;BME280;66892;53.236;6.550;2023-02-28T09:55:20;103432.34;;;4.20;84.94
77725;BME280;66892;53.236;6.550;2023-02-28T09:57:50;103431.97;;;4.42;86.04
77725;BME280;66892;53.236;6.550;2023-02-28T10:00:19;103425.31;;;4.34;83.74
77725;BME280;66892;53.236;6.550;2023-02-28T10:02:57;103430.78;;;4.24;84.80
77725;BME280;66892;53.236;6.550;2023-02-28T10:05:31;103439.19;;;4.05;85.77
77725;BME280;66892;53.236;6.550;2023-02-28T10:08:07;103432.47;;;3.83;86.45
77725;BME280;66892;53.236;6.550;2023-02-28T10:10:40;103434.88;;;3.66;86.26
77725;BME280;66892;53.236;6.550;2023-02-28T10:13:16;103431.16;;;3.63;85.71
77725;BME280;66892;53.236;6.550;2023-02-28T10:15:45;103426.81;;;3.63;86.35
77725;BME280;66892;53.236;6.550;2023-02-28T10:18:15;103429.44;;;3.63;86.66
77725;BME280;66892;53.236;6.550;2023-02-28T10:20:47;103433.09;;;3.65;85.44
77725;BME280;66892;53.236;6.550;2023-02-28T10:23:18;103429.75;;;3.68;84.83
77725;BME280;66892;53.236;6.550;2023-02-28T10:25:49;103435.78;;;3.67;87.42
77725;BME280;66892;53.236;6.550;2023-02-28T10:28:18;103423.31;;;3.76;83.45
77725;BME280;66892;53.236;6.550;2023-02-28T10:30:46;103436.19;;;3.73;84.15
77725;BME280;66892;53.236;6.550;2023-02-28T10:33:22;103424.00;;;3.73;84.82
77725;BME280;66892;53.236;6.550;2023-02-28T10:35:50;103426.63;;;3.73;84.37
77725;BME280;66892;53.236;6.550;2023-02-28T10:38:18;103429.16;;;3.72;84.51
77725;BME280;66892;53.236;6.550;2023-02-28T10:40:45;103431.06;;;3.75;81.88
77725;BME280;66892;53.236;6.550;2023-02-28T10:43:21;103431.78;;;3.72;81.65
77725;BME280;66892;53.236;6.550;2023-02-28T10:45:58;103426.03;;;3.64;80.07
77725;BME280;66892;53.236;6.550;2023-02-28T10:48:32;103431.66;;;3.70;81.79
77725;BME280;66892;53.236;6.550;2023-02-28T10:51:01;103436.50;;;3.78;81.42
77725;BME280;66892;53.236;6.550;2023-02-28T10:53:33;103426.22;;;3.81;79.87
77725;BME280;66892;53.236;6.550;2023-02-28T10:56:01;103433.19;;;3.80;81.84
77725;BME280;66892;53.236;6.550;2023-02-28T10:58:30;103436.50;;;3.91;81.69
77725;BME280;66892;53.236;6.550;2023-02-28T11:00:57;103437.50;;;3.93;82.56
77725;BME280;66892;53.236;6.550;2023-02-28T11:03:29;103428.91;;;3.95;81.39
77725;BME280;66892;53.236;6.550;2023-02-28T11:05:55;103426.09;;;4.05;80.32
77725;BME280;66892;53.236;6.550;2023-02-28T11:08:23;103424.72;;;3.97;78.63
77725;BME280;66892;53.236;6.550;2023-02-28T11:10:54;103419.47;;;3.97;80.90
77725;BME280;66892;53.236;6.550;2023-02-28T11:13:26;103415.44;;;3.89;79.75
77725;BME280;66892;53.236;6.550;2023-02-28T11:15:55;103411.59;;;4.10;79.32
77725;BME280;66892;53.236;6.550;2023-02-28T11:18:24;103409.28;;;4.02;79.11
77725;BME280;66892;53.236;6.550;2023-02-28T11:20:54;103408.06;;;4.10;79.31
77725;BME280;66892;53.236;6.550;2023-02-28T11:23:24;103413.47;;;4.26;77.68
77725;BME280;66892;53.236;6.550;2023-02-28T11:25:52;103419.81;;;4.30;79.28
77725;BME280;66892;53.236;6.550;2023-02-28T11:28:28;103405.59;;;4.39;74.78
77725;BME280;66892;53.236;6.550;2023-02-28T11:31:04;103415.63;;;4.46;73.11
77725;BME280;66892;53.236;6.550;2023-02-28T11:33:37;103412.75;;;4.56;73.44
77725;BME280;66892;53.236;6.550;2023-02-28T11:36:10;103409.47;;;4.73;71.91
77725;BME280;66892;53.236;6.550;2023-02-28T11:38:37;103408.84;;;4.77;74.06
77725;BME280;66892;53.236;6.550;2023-02-28T11:41:25;103406.16;;;4.91;75.72
77725;BME280;66892;53.236;6.550;2023-02-28T11:44:05;103412.31;;;5.06;74.42
77725;BME280;66892;53.236;6.550;2023-02-28T11:46:39;103404.44;;;4.91;72.29
77725;BME280;66892;53.236;6.550;2023-02-28T11:49:20;103403.19;;;4.99;71.31
77725;BME280;66892;53.236;6.550;2023-02-28T11:51:53;103406.69;;;5.14;74.15
77725;BME280;66892;53.236;6.550;2023-02-28T11:54:35;103408.41;;;5.43;73.11
77725;BME280;66892;53.236;6.550;2023-02-28T11:57:16;103403.38;;;6.06;68.76
77725;BME280;66892;53.236;6.550;2023-02-28T11:59:55;103405.66;;;6.97;68.85
77725;BME280;66892;53.236;6.550;2023-02-28T12:02:29;103398.88;;;6.68;66.08
77725;BME280;66892;53.236;6.550;2023-02-28T12:05:18;103400.53;;;6.50;65.53
77725;BME280;66892;53.236;6.550;2023-02-28T12:07:57;103385.94;;;6.08;65.51
77725;BME280;66892;53.236;6.550;2023-02-28T12:10:29;103391.03;;;6.05;68.75
77725;BME280;66892;53.236;6.550;2023-02-28T12:13:05;103391.50;;;5.98;66.94
77725;BME280;66892;53.236;6.550;2023-02-28T12:15:44;103391.09;;;5.91;68.58
77725;BME280;66892;53.236;6.550;2023-02-28T12:18:27;103381.47;;;5.91;67.64
77725;BME280;66892;53.236;6.550;2023-02-28T12:21:01;103379.44;;;6.02;66.97
77725;BME280;66892;53.236;6.550;2023-02-28T12:23:52;103376.25;;;6.07;66.07
77725;BME280;66892;53.236;6.550;2023-02-28T12:26:25;103367.84;;;6.13;68.71
77725;BME280;66892;53.236;6.550;2023-02-28T12:28:59;103371.56;;;6.02;69.51
77725;BME280;66892;53.236;6.550;2023-02-28T12:31:29;103358.22;;;5.97;67.04
77725;BME280;66892;53.236;6.550;2023-02-28T12:34:03;103365.19;;;5.97;68.23
77725;BME280;66892;53.236;6.550;2023-02-28T12:36:30;103364.44;;;5.84;67.81
77725;BME280;66892;53.236;6.550;2023-02-28T12:39:00;103361.47;;;5.78;68.63
77725;BME280;66892;53.236;6.550;2023-02-28T12:41:34;103365.75;;;5.76;66.66
77725;BME280;66892;53.236;6.550;2023-02-28T12:44:04;103358.25;;;5.68;67.91
77725;BME280;66892;53.236;6.550;2023-02-28T12:46:35;103360.44;;;5.60;65.88
77725;BME280;66892;53.236;6.550;2023-02-28T12:49:07;103360.84;;;5.52;68.35
77725;BME280;66892;53.236;6.550;2023-02-28T12:51:35;103347.16;;;5.57;64.57
77725;BME280;66892;53.236;6.550;2023-02-28T12:54:11;103347.22;;;5.59;68.48
77725;BME280;66892;53.236;6.550;2023-02-28T12:56:45;103352.50;;;5.75;65.87
77725;BME280;66892;53.236;6.550;2023-02-28T12:59:19;103355.31;;;5.78;64.16
77725;BME280;66892;53.236;6.550;2023-02-28T13:02:09;103346.00;;;5.83;63.10
77725;BME280;66892;53.236;6.550;2023-02-28T13:04:57;103335.22;;;5.78;63.43
77725;BME280;66892;53.236;6.550;2023-02-28T13:07:55;103334.25;;;5.76;64.89
77725;BME280;66892;53.236;6.550;2023-02-28T13:10:37;103328.34;;;5.80;63.46
77725;BME280;66892;53.236;6.550;2023-02-28T13:13:05;103331.03;;;5.82;66.56
77725;BME280;66892;53.236;6.550;2023-02-28T13:15:32;103328.72;;;5.87;65.55
77725;BME280;66892;53.236;6.550;2023-02-28T13:18:03;103324.94;;;5.98;63.89